Wetterdaten: Woche 05.01.26 - 11.01.26 (KW2)
Datum Zeit Temp. I. Temp. A. Feuchte I. Feuchte A. Luftdruck Regen Wind Richtung Sonnenschein Solar Taupunkt Windchill Windböen
05.01.2026 00:00 20,9 °C 0,3 °C 54 % 78 % 1011,3 hPa 0,0 l/m² 9,7 km/h (2 Bft) SW 0,00 h 0 W/m² -3,1 °C -2,8 °C 12,7 km/h (3 Bft)
05.01.2026 01:00 20,9 °C 0,2 °C 54 % 77 % 1011,4 hPa 0,0 l/m² 9,4 km/h (2 Bft) SW 0,00 h 0 W/m² -3,2 °C -2,6 °C 12,0 km/h (2 Bft)
05.01.2026 02:00 21,0 °C 0,1 °C 54 % 77 % 1011,6 hPa 0,0 l/m² 12,5 km/h (2 Bft) S-SW 0,00 h 0 W/m² -3,4 °C -5,2 °C 16,0 km/h (3 Bft)
05.01.2026 03:00 21,1 °C -0,1 °C 54 % 76 % 1011,6 hPa 0,0 l/m² 13,6 km/h (3 Bft) S-SW 0,00 h 0 W/m² -3,7 °C -6,1 °C 17,1 km/h (3 Bft)
05.01.2026 04:00 21,1 °C -0,2 °C 54 % 77 % 1011,7 hPa 0,0 l/m² 12,4 km/h (2 Bft) S-SW 0,00 h 0 W/m² -3,8 °C -5,5 °C 15,5 km/h (3 Bft)
05.01.2026 05:00 21,2 °C -0,5 °C 53 % 77 % 1011,9 hPa 0,0 l/m² 10,3 km/h (2 Bft) S-SW 0,00 h 0 W/m² -4,1 °C -4,2 °C 13,4 km/h (3 Bft)
05.01.2026 06:00 21,2 °C -1,1 °C 53 % 77 % 1011,9 hPa 0,0 l/m² 11,3 km/h (2 Bft) S 0,00 h 0 W/m² -4,5 °C -5,6 °C 14,8 km/h (3 Bft)
05.01.2026 07:00 21,2 °C -1,5 °C 53 % 76 % 1012,0 hPa 0,0 l/m² 9,9 km/h (2 Bft) S 0,00 h 0 W/m² -5,1 °C -4,9 °C 14,1 km/h (3 Bft)
05.01.2026 08:00 21,4 °C -1,7 °C 53 % 76 % 1012,6 hPa 0,0 l/m² 2,4 km/h (1 Bft) S 0,00 h 11 W/m² -5,4 °C -1,8 °C 4,3 km/h (1 Bft)
05.01.2026 09:00 21,5 °C -1,4 °C 53 % 76 % 1012,9 hPa 0,0 l/m² 5,6 km/h (2 Bft) S 0,30 h 54 W/m² -5,1 °C -2,9 °C 8,1 km/h (2 Bft)
05.01.2026 10:00 21,6 °C -0,3 °C 53 % 74 % 1013,0 hPa 0,0 l/m² 4,9 km/h (1 Bft) S-SO 1,00 h 124 W/m² -4,4 °C -0,8 °C 7,5 km/h (2 Bft)
05.01.2026 11:00 21,6 °C 0,1 °C 51 % 74 % 1012,9 hPa 0,0 l/m² 9,5 km/h (2 Bft) SW 1,00 h 152 W/m² -4,0 °C -3,5 °C 12,4 km/h (2 Bft)
05.01.2026 12:00 21,7 °C 0,6 °C 49 % 73 % 1012,7 hPa 0,0 l/m² 9,7 km/h (2 Bft) SW 1,00 h 170 W/m² -3,7 °C -2,5 °C 14,1 km/h (3 Bft)
05.01.2026 13:00 21,7 °C 0,5 °C 51 % 73 % 1012,5 hPa 0,0 l/m² 9,1 km/h (2 Bft) SW 0,98 h 171 W/m² -3,8 °C -2,2 °C 12,8 km/h (3 Bft)
05.01.2026 14:00 21,7 °C 1,6 °C 50 % 69 % 1012,4 hPa 0,0 l/m² 9,6 km/h (2 Bft) SW 1,02 h 169 W/m² -3,4 °C -1,4 °C 13,0 km/h (3 Bft)
05.01.2026 15:00 21,8 °C 1,2 °C 50 % 70 % 1012,6 hPa 0,0 l/m² 4,2 km/h (1 Bft) SW 0,52 h 54 W/m² -3,7 °C 0,9 °C 6,6 km/h (2 Bft)
05.01.2026 16:00 21,8 °C -0,1 °C 51 % 71 % 1012,8 hPa 0,0 l/m² 0,8 km/h (0 Bft) SW 0,00 h 10 W/m² -4,8 °C -0,1 °C 1,7 km/h (1 Bft)
05.01.2026 17:00 21,7 °C -2,2 °C 51 % 76 % 1012,9 hPa 0,0 l/m² 0,0 km/h (0 Bft) SW 0,00 h 0 W/m² -5,8 °C -2,2 °C 0,0 km/h (0 Bft)
05.01.2026 18:00 21,7 °C -3,6 °C 52 % 79 % 1013,0 hPa 0,0 l/m² 0,2 km/h (0 Bft) O-SO 0,00 h 0 W/m² -6,7 °C -3,6 °C 0,9 km/h (0 Bft)
05.01.2026 19:00 21,5 °C -4,4 °C 50 % 81 % 1013,0 hPa 0,0 l/m² 0,4 km/h (0 Bft) O-SO 0,00 h 0 W/m² -7,1 °C -4,4 °C 1,1 km/h (1 Bft)
05.01.2026 20:00 21,8 °C -5,0 °C 52 % 82 % 1013,1 hPa 0,0 l/m² 0,4 km/h (0 Bft) O-SO 0,00 h 0 W/m² -7,6 °C -5,0 °C 1,0 km/h (0 Bft)
05.01.2026 21:00 22,2 °C -5,1 °C 54 % 83 % 1013,5 hPa 0,0 l/m² 2,7 km/h (1 Bft) S 0,00 h 0 W/m² -7,6 °C -5,1 °C 5,5 km/h (2 Bft)
05.01.2026 22:00 22,2 °C -5,4 °C 53 % 83 % 1013,6 hPa 0,0 l/m² 0,2 km/h (0 Bft) S 0,00 h 0 W/m² -7,9 °C -5,4 °C 0,6 km/h (0 Bft)
05.01.2026 23:00 22,0 °C -5,8 °C 52 % 83 % 1013,6 hPa 0,0 l/m² 0,3 km/h (0 Bft) S 0,00 h 0 W/m² -8,2 °C -5,8 °C 1,0 km/h (0 Bft)
06.01.2026 00:00 21,9 °C -6,4 °C 52 % 84 % 1013,5 hPa 0,0 l/m² 0,8 km/h (0 Bft) S 0,00 h 0 W/m² -8,7 °C -6,4 °C 2,1 km/h (1 Bft)
06.01.2026 01:00 21,8 °C -6,9 °C 52 % 85 % 1013,5 hPa 0,0 l/m² 0,1 km/h (0 Bft) S-SW 0,00 h 0 W/m² -9,1 °C -6,9 °C 0,4 km/h (0 Bft)
06.01.2026 02:00 21,8 °C -7,5 °C 52 % 85 % 1013,6 hPa 0,0 l/m² 0,0 km/h (0 Bft) S-SW 0,00 h 0 W/m² -9,5 °C -7,5 °C 0,0 km/h (0 Bft)
06.01.2026 03:00 21,9 °C -5,9 °C 51 % 88 % 1013,4 hPa 0,0 l/m² 5,3 km/h (1 Bft) S-SW 0,00 h 0 W/m² -7,6 °C -6,8 °C 7,3 km/h (2 Bft)
06.01.2026 04:00 21,9 °C -4,7 °C 51 % 87 % 1013,5 hPa 0,0 l/m² 3,6 km/h (1 Bft) S-SW 0,00 h 0 W/m² -6,5 °C -4,8 °C 5,2 km/h (1 Bft)
06.01.2026 05:00 21,8 °C -4,7 °C 51 % 87 % 1013,8 hPa 0,0 l/m² 5,0 km/h (1 Bft) S-SW 0,00 h 0 W/m² -6,5 °C -5,1 °C 6,7 km/h (2 Bft)
06.01.2026 06:00 21,9 °C -4,7 °C 51 % 87 % 1014,0 hPa 0,0 l/m² 0,9 km/h (0 Bft) SW 0,00 h 0 W/m² -6,5 °C -4,7 °C 2,2 km/h (1 Bft)
06.01.2026 07:00 21,8 °C -4,1 °C 51 % 87 % 1014,5 hPa 0,0 l/m² 2,5 km/h (1 Bft) SW 0,00 h 0 W/m² -5,9 °C -4,2 °C 4,0 km/h (1 Bft)
06.01.2026 08:00 21,8 °C -3,9 °C 51 % 88 % 1015,0 hPa 0,0 l/m² 2,5 km/h (1 Bft) S-SW 0,00 h 10 W/m² -5,7 °C -4,0 °C 4,3 km/h (1 Bft)
06.01.2026 09:00 22,0 °C -3,8 °C 52 % 87 % 1015,4 hPa 0,0 l/m² 4,9 km/h (1 Bft) SW 0,03 h 34 W/m² -5,7 °C -4,2 °C 7,4 km/h (2 Bft)
06.01.2026 10:00 21,9 °C -3,4 °C 52 % 86 % 1015,8 hPa 0,0 l/m² 6,9 km/h (2 Bft) SW 1,00 h 88 W/m² -5,4 °C -4,6 °C 9,5 km/h (2 Bft)
06.01.2026 11:00 21,8 °C -2,9 °C 50 % 84 % 1015,8 hPa 0,0 l/m² 7,8 km/h (2 Bft) SW 1,00 h 115 W/m² -5,1 °C -4,8 °C 10,3 km/h (2 Bft)
06.01.2026 12:00 21,9 °C -2,3 °C 50 % 83 % 1015,9 hPa 0,0 l/m² 8,7 km/h (2 Bft) SW 1,00 h 121 W/m² -4,7 °C -5,0 °C 12,1 km/h (2 Bft)
06.01.2026 13:00 21,8 °C -1,7 °C 49 % 82 % 1015,7 hPa 0,0 l/m² 9,9 km/h (2 Bft) SW 1,00 h 116 W/m² -4,4 °C -5,5 °C 14,4 km/h (3 Bft)
06.01.2026 14:00 21,9 °C -1,7 °C 50 % 82 % 1015,7 hPa 0,0 l/m² 10,3 km/h (2 Bft) SW 0,53 h 63 W/m² -4,4 °C -5,5 °C 14,5 km/h (3 Bft)
06.01.2026 15:00 21,9 °C -1,8 °C 50 % 82 % 1016,0 hPa 0,0 l/m² 11,2 km/h (2 Bft) SW 0,00 h 25 W/m² -4,4 °C -6,3 °C 15,6 km/h (3 Bft)
06.01.2026 16:00 22,1 °C -1,9 °C 51 % 83 % 1016,2 hPa 0,0 l/m² 11,5 km/h (2 Bft) SW 0,00 h 5 W/m² -4,4 °C -6,7 °C 15,1 km/h (3 Bft)
06.01.2026 17:00 22,1 °C -1,9 °C 51 % 83 % 1016,4 hPa 0,0 l/m² 11,5 km/h (2 Bft) SW 0,00 h 0 W/m² -4,4 °C -6,7 °C 15,6 km/h (3 Bft)
06.01.2026 18:00 22,0 °C -1,9 °C 50 % 84 % 1016,7 hPa 0,0 l/m² 11,3 km/h (2 Bft) SW 0,00 h 0 W/m² -4,2 °C -6,6 °C 15,1 km/h (3 Bft)
06.01.2026 19:00 21,9 °C -1,9 °C 52 % 84 % 1017,0 hPa 0,0 l/m² 8,7 km/h (2 Bft) SW 0,00 h 0 W/m² -4,2 °C -4,3 °C 11,5 km/h (2 Bft)
06.01.2026 20:00 22,1 °C -2,2 °C 52 % 84 % 1017,0 hPa 0,0 l/m² 6,0 km/h (2 Bft) SW 0,00 h 0 W/m² -4,5 °C -2,7 °C 8,3 km/h (2 Bft)
06.01.2026 21:00 22,2 °C -3,5 °C 52 % 85 % 1017,2 hPa 0,0 l/m² 3,6 km/h (1 Bft) SW 0,00 h 0 W/m² -5,7 °C -3,6 °C 5,5 km/h (2 Bft)
06.01.2026 22:00 22,2 °C -4,7 °C 51 % 85 % 1017,2 hPa 0,0 l/m² 0,2 km/h (0 Bft) SW 0,00 h 0 W/m² -6,8 °C -4,7 °C 0,9 km/h (0 Bft)
06.01.2026 23:00 22,0 °C -5,6 °C 51 % 86 % 1017,1 hPa 0,0 l/m² 0,1 km/h (0 Bft) SW 0,00 h 0 W/m² -7,6 °C -5,6 °C 0,4 km/h (0 Bft)
07.01.2026 00:00 22,0 °C -6,1 °C 51 % 87 % 1017,0 hPa 0,0 l/m² 0,2 km/h (0 Bft) W-SW 0,00 h 0 W/m² -7,9 °C -6,1 °C 0,8 km/h (0 Bft)
07.01.2026 01:00 22,0 °C -6,3 °C 51 % 88 % 1016,9 hPa 0,0 l/m² 0,2 km/h (0 Bft) S 0,00 h 0 W/m² -7,9 °C -6,3 °C 0,7 km/h (0 Bft)
07.01.2026 02:00 21,9 °C -6,9 °C 51 % 88 % 1016,5 hPa 0,0 l/m² 0,0 km/h (0 Bft) S 0,00 h 0 W/m² -8,5 °C -6,9 °C 0,2 km/h (0 Bft)
07.01.2026 03:00 22,1 °C -8,0 °C 50 % 88 % 1016,2 hPa 0,0 l/m² 0,0 km/h (0 Bft) O 0,00 h 0 W/m² -9,6 °C -8,0 °C 0,1 km/h (0 Bft)
07.01.2026 04:00 22,1 °C -8,3 °C 50 % 89 % 1016,2 hPa 0,0 l/m² 0,1 km/h (0 Bft) O 0,00 h 0 W/m² -9,9 °C -8,3 °C 0,3 km/h (0 Bft)
07.01.2026 05:00 22,1 °C -8,3 °C 49 % 89 % 1016,3 hPa 0,0 l/m² 0,0 km/h (0 Bft) O-SO 0,00 h 0 W/m² -9,7 °C -8,3 °C 0,3 km/h (0 Bft)
07.01.2026 06:00 22,1 °C -8,2 °C 49 % 89 % 1016,4 hPa 0,0 l/m² 0,3 km/h (0 Bft) SO 0,00 h 0 W/m² -9,7 °C -8,2 °C 1,5 km/h (1 Bft)
07.01.2026 07:00 22,0 °C -8,2 °C 46 % 89 % 1016,2 hPa 0,0 l/m² 0,0 km/h (0 Bft) SO 0,00 h 0 W/m² -9,7 °C -8,2 °C 0,5 km/h (0 Bft)
07.01.2026 08:00 22,0 °C -8,2 °C 47 % 89 % 1016,3 hPa 0,0 l/m² 0,1 km/h (0 Bft) S-SW 0,00 h 15 W/m² -9,7 °C -8,2 °C 0,6 km/h (0 Bft)
07.01.2026 09:00 22,5 °C -6,2 °C 47 % 89 % 1016,0 hPa 0,0 l/m² 5,7 km/h (2 Bft) S-SO 0,80 h 84 W/m² -7,7 °C -7,3 °C 9,4 km/h (2 Bft)
07.01.2026 10:00 22,7 °C -3,8 °C 47 % 85 % 1015,5 hPa 0,0 l/m² 10,4 km/h (2 Bft) S 1,00 h 205 W/m² -5,9 °C -7,8 °C 13,7 km/h (3 Bft)
07.01.2026 11:00 22,9 °C -1,9 °C 47 % 80 % 1014,8 hPa 0,0 l/m² 14,8 km/h (3 Bft) S 1,00 h 287 W/m² -4,8 °C -9,0 °C 19,1 km/h (3 Bft)
07.01.2026 12:00 23,1 °C -0,7 °C 46 % 75 % 1014,0 hPa 0,0 l/m² 15,7 km/h (3 Bft) S 1,00 h 309 W/m² -4,6 °C -8,1 °C 20,6 km/h (4 Bft)
07.01.2026 13:00 22,9 °C -0,3 °C 47 % 71 % 1013,2 hPa 0,0 l/m² 17,7 km/h (3 Bft) S 1,00 h 272 W/m² -5,0 °C -8,9 °C 23,5 km/h (4 Bft)
07.01.2026 14:00 22,7 °C -0,2 °C 47 % 70 % 1012,7 hPa 0,0 l/m² 16,1 km/h (3 Bft) S 1,00 h 178 W/m² -5,1 °C -7,8 °C 21,8 km/h (4 Bft)
07.01.2026 15:00 22,6 °C -0,6 °C 47 % 69 % 1012,2 hPa 0,0 l/m² 12,9 km/h (3 Bft) SO 0,58 h 62 W/m² -5,6 °C -6,1 °C 17,7 km/h (3 Bft)
07.01.2026 16:00 22,4 °C -2,0 °C 47 % 72 % 1012,0 hPa 0,0 l/m² 6,3 km/h (2 Bft) SO 0,00 h 9 W/m² -6,5 °C -2,6 °C 9,1 km/h (2 Bft)
07.01.2026 17:00 22,4 °C -3,9 °C 46 % 75 % 1011,9 hPa 0,0 l/m² 4,4 km/h (1 Bft) S-SO 0,00 h 0 W/m² -7,6 °C -4,0 °C 6,1 km/h (2 Bft)
07.01.2026 18:00 22,2 °C -4,6 °C 45 % 78 % 1011,5 hPa 0,0 l/m² 6,0 km/h (2 Bft) SO 0,00 h 0 W/m² -7,9 °C -4,9 °C 8,6 km/h (2 Bft)
07.01.2026 19:00 22,0 °C -4,9 °C 44 % 78 % 1011,2 hPa 0,0 l/m² 7,7 km/h (2 Bft) SO 0,00 h 0 W/m² -8,1 °C -6,7 °C 11,0 km/h (2 Bft)
07.01.2026 20:00 21,9 °C -5,3 °C 43 % 79 % 1011,0 hPa 0,0 l/m² 4,0 km/h (1 Bft) S-SO 0,00 h 0 W/m² -8,5 °C -5,8 °C 6,5 km/h (2 Bft)
07.01.2026 21:00 21,9 °C -6,4 °C 42 % 80 % 1010,8 hPa 0,0 l/m² 5,8 km/h (2 Bft) SO 0,00 h 0 W/m² -9,2 °C -6,9 °C 7,8 km/h (2 Bft)
07.01.2026 22:00 22,0 °C -6,6 °C 44 % 82 % 1010,4 hPa 0,0 l/m² 8,4 km/h (2 Bft) O-SO 0,00 h 0 W/m² -9,1 °C -9,4 °C 11,1 km/h (2 Bft)
07.01.2026 23:00 22,0 °C -6,8 °C 45 % 82 % 1010,1 hPa 0,0 l/m² 5,6 km/h (2 Bft) O-SO 0,00 h 0 W/m² -9,4 °C -7,1 °C 8,8 km/h (2 Bft)
08.01.2026 00:00 22,1 °C -7,1 °C 45 % 83 % 1009,8 hPa 0,0 l/m² 4,4 km/h (1 Bft) O-SO 0,00 h 0 W/m² -9,5 °C -7,6 °C 7,4 km/h (2 Bft)
08.01.2026 01:00 22,1 °C -6,0 °C 46 % 83 % 1009,5 hPa 0,0 l/m² 8,6 km/h (2 Bft) O-SO 0,00 h 0 W/m² -8,5 °C -8,6 °C 12,7 km/h (3 Bft)
08.01.2026 02:00 22,1 °C -5,4 °C 46 % 81 % 1009,4 hPa 0,0 l/m² 6,8 km/h (2 Bft) O-SO 0,00 h 0 W/m² -8,1 °C -6,5 °C 10,4 km/h (2 Bft)
08.01.2026 03:00 22,2 °C -5,4 °C 46 % 83 % 1009,3 hPa 0,0 l/m² 4,6 km/h (1 Bft) SO 0,00 h 0 W/m² -7,8 °C -5,6 °C 7,5 km/h (2 Bft)
08.01.2026 04:00 22,1 °C -5,2 °C 46 % 86 % 1009,0 hPa 0,0 l/m² 6,0 km/h (2 Bft) O-SO 0,00 h 0 W/m² -7,2 °C -6,1 °C 9,2 km/h (2 Bft)
08.01.2026 05:00 22,1 °C -4,6 °C 46 % 87 % 1008,7 hPa 0,0 l/m² 5,2 km/h (1 Bft) SO 0,00 h 0 W/m² -6,4 °C -5,2 °C 8,4 km/h (2 Bft)
08.01.2026 06:00 22,1 °C -4,2 °C 45 % 88 % 1008,8 hPa 0,0 l/m² 2,7 km/h (1 Bft) O-SO 0,00 h 0 W/m² -5,9 °C -4,2 °C 5,3 km/h (1 Bft)
08.01.2026 07:00 21,9 °C -3,6 °C 44 % 88 % 1008,9 hPa 0,0 l/m² 5,7 km/h (2 Bft) S-SO 0,00 h 0 W/m² -5,2 °C -4,2 °C 8,8 km/h (2 Bft)
08.01.2026 08:00 21,9 °C -3,0 °C 44 % 89 % 1009,0 hPa 0,0 l/m² 6,1 km/h (2 Bft) S-SO 0,00 h 13 W/m² -4,6 °C -3,7 °C 9,9 km/h (2 Bft)
08.01.2026 09:00 22,0 °C -2,7 °C 45 % 88 % 1009,0 hPa 0,0 l/m² 2,6 km/h (1 Bft) S 0,05 h 40 W/m² -4,4 °C -2,7 °C 5,5 km/h (2 Bft)
08.01.2026 10:00 22,0 °C -1,8 °C 45 % 88 % 1009,2 hPa 0,0 l/m² 1,0 km/h (0 Bft) S-SW 0,95 h 95 W/m² -3,4 °C -1,8 °C 2,5 km/h (1 Bft)
08.01.2026 11:00 22,1 °C -0,7 °C 45 % 88 % 1008,9 hPa 0,0 l/m² 0,7 km/h (0 Bft) O-SO 1,00 h 104 W/m² -2,5 °C -0,7 °C 1,8 km/h (1 Bft)
08.01.2026 12:00 22,1 °C 0,3 °C 45 % 86 % 1008,6 hPa 0,2 l/m² 10,0 km/h (2 Bft) SW 1,02 h 141 W/m² -1,7 °C -2,9 °C 13,8 km/h (3 Bft)
08.01.2026 13:00 22,1 °C 0,6 °C 45 % 84 % 1008,7 hPa 0,0 l/m² 14,0 km/h (3 Bft) SW 0,98 h 106 W/m² -1,7 °C -5,5 °C 19,5 km/h (3 Bft)
08.01.2026 14:00 22,1 °C 0,7 °C 45 % 83 % 1008,4 hPa 0,0 l/m² 12,3 km/h (2 Bft) SW 1,02 h 116 W/m² -1,8 °C -4,3 °C 16,4 km/h (3 Bft)
08.01.2026 15:00 22,0 °C 0,4 °C 45 % 82 % 1008,6 hPa 0,0 l/m² 8,3 km/h (2 Bft) S-SW 0,18 h 38 W/m² -2,4 °C -1,5 °C 11,3 km/h (2 Bft)
08.01.2026 16:00 21,9 °C -1,0 °C 44 % 83 % 1008,6 hPa 0,0 l/m² 4,1 km/h (1 Bft) S-SW 0,00 h 8 W/m² -3,4 °C -1,1 °C 5,9 km/h (2 Bft)
08.01.2026 17:00 21,8 °C -2,1 °C 44 % 84 % 1008,4 hPa 0,0 l/m² 0,1 km/h (0 Bft) S 0,00 h 0 W/m² -4,4 °C -2,1 °C 0,4 km/h (0 Bft)
08.01.2026 18:00 21,7 °C -3,1 °C 43 % 85 % 1008,2 hPa 0,0 l/m² 0,0 km/h (0 Bft) O 0,00 h 0 W/m² -5,2 °C -3,1 °C 0,4 km/h (0 Bft)
08.01.2026 19:00 21,7 °C -3,4 °C 44 % 87 % 1008,1 hPa 0,0 l/m² 0,1 km/h (0 Bft) O-NO 0,00 h 0 W/m² -5,3 °C -3,4 °C 0,6 km/h (0 Bft)
08.01.2026 20:00 22,0 °C -3,7 °C 46 % 88 % 1007,5 hPa 0,0 l/m² 1,6 km/h (1 Bft) O-NO 0,00 h 0 W/m² -5,5 °C -3,7 °C 3,9 km/h (1 Bft)
08.01.2026 21:00 22,2 °C -4,0 °C 47 % 89 % 1006,9 hPa 0,0 l/m² 4,0 km/h (1 Bft) O 0,00 h 0 W/m² -5,6 °C -4,3 °C 6,9 km/h (2 Bft)
08.01.2026 22:00 22,4 °C -3,9 °C 48 % 89 % 1006,5 hPa 0,0 l/m² 4,2 km/h (1 Bft) O 0,00 h 0 W/m² -5,5 °C -4,6 °C 7,0 km/h (2 Bft)
08.01.2026 23:00 22,3 °C -3,7 °C 47 % 89 % 1005,5 hPa 0,0 l/m² 9,2 km/h (2 Bft) O 0,00 h 0 W/m² -5,3 °C -6,7 °C 12,9 km/h (3 Bft)
09.01.2026 00:00 22,2 °C -3,1 °C 47 % 89 % 1004,5 hPa 0,0 l/m² 11,6 km/h (2 Bft) O 0,00 h 0 W/m² -4,6 °C -7,9 °C 15,7 km/h (3 Bft)
09.01.2026 01:00 22,2 °C -2,8 °C 47 % 88 % 1003,6 hPa 0,0 l/m² 14,2 km/h (3 Bft) O 0,00 h 0 W/m² -4,5 °C -9,7 °C 19,1 km/h (3 Bft)
09.01.2026 02:00 22,1 °C -2,3 °C 47 % 87 % 1002,3 hPa 0,0 l/m² 15,4 km/h (3 Bft) O 0,00 h 0 W/m² -4,3 °C -10,0 °C 19,6 km/h (3 Bft)
09.01.2026 03:00 22,1 °C -2,0 °C 47 % 85 % 1001,1 hPa 0,0 l/m² 15,0 km/h (3 Bft) O-NO 0,00 h 0 W/m² -4,2 °C -9,4 °C 20,3 km/h (4 Bft)
09.01.2026 04:00 22,1 °C -2,6 °C 47 % 86 % 999,7 hPa 0,0 l/m² 16,7 km/h (3 Bft) O 0,00 h 0 W/m² -4,6 °C -11,1 °C 23,2 km/h (4 Bft)
09.01.2026 05:00 22,0 °C -2,9 °C 47 % 90 % 998,5 hPa 0,0 l/m² 18,0 km/h (3 Bft) O 0,00 h 0 W/m² -4,4 °C -12,3 °C 24,9 km/h (4 Bft)
09.01.2026 06:00 22,0 °C -2,9 °C 47 % 91 % 997,8 hPa 0,0 l/m² 20,9 km/h (4 Bft) O 0,00 h 0 W/m² -4,1 °C -13,8 °C 28,1 km/h (5 Bft)
09.01.2026 07:00 22,1 °C -2,7 °C 48 % 92 % 997,5 hPa 0,0 l/m² 23,3 km/h (4 Bft) O 0,00 h 0 W/m² -3,8 °C -14,6 °C 30,4 km/h (5 Bft)
09.01.2026 08:00 22,1 °C -2,5 °C 48 % 93 % 997,1 hPa 0,0 l/m² 23,2 km/h (4 Bft) O 0,00 h 8 W/m² -3,5 °C -14,2 °C 31,0 km/h (5 Bft)
09.01.2026 09:00 22,2 °C -2,2 °C 49 % 93 % 996,7 hPa 0,0 l/m² 23,5 km/h (4 Bft) O 0,15 h 29 W/m² -3,2 °C -14,0 °C 30,9 km/h (5 Bft)
09.01.2026 10:00 22,2 °C -2,0 °C 49 % 93 % 996,2 hPa 0,0 l/m² 22,4 km/h (4 Bft) O 0,47 h 50 W/m² -3,0 °C -13,2 °C 29,0 km/h (5 Bft)
09.01.2026 11:00 22,2 °C -1,7 °C 48 % 93 % 995,4 hPa 0,0 l/m² 24,4 km/h (4 Bft) O 1,00 h 131 W/m² -2,7 °C -13,8 °C 31,7 km/h (5 Bft)
09.01.2026 12:00 22,2 °C -1,4 °C 47 % 92 % 994,8 hPa 0,0 l/m² 24,2 km/h (4 Bft) O 1,00 h 134 W/m² -2,5 °C -13,3 °C 31,8 km/h (5 Bft)
09.01.2026 13:00 22,3 °C -1,2 °C 49 % 92 % 994,4 hPa 0,0 l/m² 23,9 km/h (4 Bft) O 1,00 h 138 W/m² -2,4 °C -12,9 °C 31,0 km/h (5 Bft)
09.01.2026 14:00 22,3 °C -1,2 °C 47 % 92 % 994,2 hPa 0,0 l/m² 21,7 km/h (4 Bft) O-NO 1,00 h 82 W/m² -2,3 °C -11,9 °C 28,5 km/h (5 Bft)
09.01.2026 15:00 22,3 °C -1,1 °C 48 % 92 % 994,1 hPa 0,0 l/m² 22,7 km/h (4 Bft) O-NO 0,45 h 45 W/m² -2,2 °C -12,2 °C 29,0 km/h (5 Bft)
09.01.2026 16:00 22,3 °C -1,3 °C 48 % 92 % 994,2 hPa 0,0 l/m² 18,1 km/h (3 Bft) O-NO 0,00 h 7 W/m² -2,4 °C -10,2 °C 24,3 km/h (4 Bft)
09.01.2026 17:00 22,3 °C -1,4 °C 48 % 92 % 994,4 hPa 0,0 l/m² 18,8 km/h (3 Bft) O-NO 0,00 h 0 W/m² -2,4 °C -10,8 °C 24,5 km/h (4 Bft)
09.01.2026 18:00 22,3 °C -1,5 °C 48 % 92 % 994,6 hPa 0,0 l/m² 19,7 km/h (3 Bft) O-NO 0,00 h 0 W/m² -2,6 °C -11,4 °C 26,4 km/h (4 Bft)
09.01.2026 19:00 22,3 °C -1,8 °C 47 % 93 % 994,8 hPa 0,0 l/m² 19,4 km/h (3 Bft) O-NO 0,00 h 0 W/m² -2,8 °C -11,6 °C 26,5 km/h (4 Bft)
09.01.2026 20:00 22,3 °C -1,9 °C 49 % 92 % 995,3 hPa 0,0 l/m² 18,8 km/h (3 Bft) O-NO 0,00 h 0 W/m² -3,0 °C -11,4 °C 26,3 km/h (4 Bft)
09.01.2026 21:00 22,6 °C -2,0 °C 52 % 92 % 995,9 hPa 0,0 l/m² 20,7 km/h (4 Bft) O-NO 0,00 h 0 W/m² -3,1 °C -12,5 °C 29,3 km/h (5 Bft)
09.01.2026 22:00 22,7 °C -2,4 °C 52 % 92 % 996,5 hPa 0,0 l/m² 21,2 km/h (4 Bft) O-NO 0,00 h 0 W/m² -3,5 °C -13,2 °C 29,5 km/h (5 Bft)
09.01.2026 23:00 22,4 °C -3,1 °C 51 % 91 % 997,2 hPa 0,0 l/m² 22,1 km/h (4 Bft) O-NO 0,00 h 0 W/m² -4,3 °C -14,5 °C 31,0 km/h (5 Bft)
10.01.2026 00:00 22,4 °C -3,8 °C 51 % 90 % 997,9 hPa 0,0 l/m² 22,1 km/h (4 Bft) O-NO 0,00 h 0 W/m² -5,1 °C -15,4 °C 31,0 km/h (5 Bft)
10.01.2026 01:00 22,3 °C -4,2 °C 51 % 90 % 998,6 hPa 0,0 l/m² 19,7 km/h (3 Bft) O-NO 0,00 h 0 W/m² -5,6 °C -14,7 °C 28,2 km/h (5 Bft)
10.01.2026 02:00 22,3 °C -4,5 °C 51 % 90 % 999,6 hPa 0,0 l/m² 12,4 km/h (2 Bft) O-NO 0,00 h 0 W/m² -5,9 °C -10,3 °C 19,0 km/h (3 Bft)
10.01.2026 03:00 22,3 °C -4,9 °C 51 % 91 % 1000,7 hPa 0,0 l/m² 11,3 km/h (2 Bft) NO 0,00 h 0 W/m² -6,1 °C -9,9 °C 18,2 km/h (3 Bft)
10.01.2026 04:00 22,3 °C -5,5 °C 50 % 90 % 1002,0 hPa 0,0 l/m² 14,9 km/h (3 Bft) O-NO 0,00 h 0 W/m² -6,8 °C -13,2 °C 23,0 km/h (4 Bft)
10.01.2026 05:00 22,2 °C -5,9 °C 50 % 90 % 1003,3 hPa 0,0 l/m² 9,6 km/h (2 Bft) NO 0,00 h 0 W/m² -7,3 °C -9,5 °C 16,7 km/h (3 Bft)
10.01.2026 06:00 22,2 °C -6,1 °C 50 % 90 % 1004,3 hPa 0,0 l/m² 11,3 km/h (2 Bft) NO 0,00 h 0 W/m² -7,5 °C -11,3 °C 19,5 km/h (3 Bft)
10.01.2026 07:00 22,2 °C -6,0 °C 49 % 90 % 1005,4 hPa 0,0 l/m² 14,8 km/h (3 Bft) O-NO 0,00 h 0 W/m² -7,4 °C -14,0 °C 23,6 km/h (4 Bft)
10.01.2026 08:00 22,1 °C -5,7 °C 48 % 88 % 1006,7 hPa 0,0 l/m² 13,3 km/h (3 Bft) NO 0,00 h 13 W/m² -7,4 °C -12,3 °C 22,1 km/h (4 Bft)
10.01.2026 09:00 22,1 °C -5,3 °C 48 % 87 % 1008,1 hPa 0,0 l/m² 11,7 km/h (2 Bft) NO 0,43 h 43 W/m² -7,2 °C -10,6 °C 18,4 km/h (3 Bft)
10.01.2026 10:00 22,0 °C -5,0 °C 47 % 86 % 1009,6 hPa 0,0 l/m² 8,7 km/h (2 Bft) NO 1,00 h 93 W/m² -7,0 °C -7,6 °C 14,9 km/h (3 Bft)
10.01.2026 11:00 21,8 °C -4,6 °C 45 % 84 % 1010,4 hPa 0,0 l/m² 8,3 km/h (2 Bft) NO 1,00 h 154 W/m² -7,0 °C -7,1 °C 14,4 km/h (3 Bft)
10.01.2026 12:00 21,7 °C -2,7 °C 42 % 78 % 1010,9 hPa 0,0 l/m² 8,5 km/h (2 Bft) N-NO 1,00 h 304 W/m² -5,9 °C -5,2 °C 14,7 km/h (3 Bft)
10.01.2026 13:00 21,7 °C -2,1 °C 39 % 72 % 1011,7 hPa 0,2 l/m² 7,3 km/h (2 Bft) N-NO 1,00 h 234 W/m² -6,4 °C -3,4 °C 12,1 km/h (2 Bft)
10.01.2026 14:00 21,8 °C -4,3 °C 41 % 74 % 1012,8 hPa 0,0 l/m² 5,3 km/h (1 Bft) N 1,00 h 94 W/m² -8,2 °C -4,9 °C 9,1 km/h (2 Bft)
10.01.2026 15:00 21,8 °C -5,4 °C 41 % 76 % 1013,8 hPa 0,0 l/m² 7,8 km/h (2 Bft) N-NW 0,48 h 55 W/m² -8,9 °C -7,4 °C 11,7 km/h (2 Bft)
10.01.2026 16:00 21,8 °C -7,3 °C 41 % 76 % 1015,2 hPa 0,0 l/m² 1,7 km/h (1 Bft) W 0,00 h 9 W/m² -10,8 °C -7,3 °C 3,1 km/h (1 Bft)
10.01.2026 17:00 21,8 °C -9,7 °C 42 % 80 % 1016,0 hPa 0,0 l/m² 3,1 km/h (1 Bft) W 0,00 h 0 W/m² -12,5 °C -9,9 °C 5,1 km/h (1 Bft)
10.01.2026 18:00 21,7 °C -9,7 °C 41 % 84 % 1016,8 hPa 0,0 l/m² 0,9 km/h (0 Bft) SW 0,00 h 0 W/m² -12,0 °C -9,7 °C 2,2 km/h (1 Bft)
10.01.2026 19:00 21,7 °C -9,4 °C 41 % 86 % 1017,5 hPa 0,0 l/m² 1,4 km/h (1 Bft) W-SW 0,00 h 0 W/m² -11,3 °C -9,4 °C 2,9 km/h (1 Bft)
10.01.2026 20:00 22,1 °C -7,7 °C 44 % 87 % 1018,3 hPa 0,0 l/m² 4,0 km/h (1 Bft) W-SW 0,00 h 0 W/m² -9,5 °C -8,4 °C 7,5 km/h (2 Bft)
10.01.2026 21:00 22,6 °C -5,3 °C 45 % 87 % 1018,9 hPa 0,0 l/m² 9,0 km/h (2 Bft) NW 0,00 h 0 W/m² -7,1 °C -8,2 °C 15,4 km/h (3 Bft)
10.01.2026 22:00 22,7 °C -4,8 °C 45 % 85 % 1019,5 hPa 0,0 l/m² 6,5 km/h (2 Bft) NW 0,00 h 0 W/m² -7,0 °C -5,7 °C 11,3 km/h (2 Bft)
10.01.2026 23:00 22,4 °C -5,6 °C 45 % 85 % 1020,1 hPa 0,0 l/m² 7,8 km/h (2 Bft) NW 0,00 h 0 W/m² -7,7 °C -7,5 °C 14,5 km/h (3 Bft)
11.01.2026 00:00 22,2 °C -6,2 °C 45 % 86 % 1020,7 hPa 0,0 l/m² 8,6 km/h (2 Bft) NW 0,00 h 0 W/m² -8,1 °C -8,9 °C 15,0 km/h (3 Bft)
11.01.2026 01:00 22,2 °C -6,7 °C 45 % 87 % 1021,6 hPa 0,0 l/m² 6,5 km/h (2 Bft) NW 0,00 h 0 W/m² -8,5 °C -7,6 °C 12,4 km/h (2 Bft)
11.01.2026 02:00 22,2 °C -6,4 °C 45 % 89 % 1022,4 hPa 0,0 l/m² 10,5 km/h (2 Bft) NW 0,00 h 0 W/m² -8,0 °C -10,9 °C 17,7 km/h (3 Bft)
11.01.2026 03:00 22,1 °C -6,3 °C 45 % 89 % 1022,8 hPa 0,0 l/m² 11,0 km/h (2 Bft) NW 0,00 h 0 W/m² -7,8 °C -11,2 °C 17,4 km/h (3 Bft)
11.01.2026 04:00 22,2 °C -6,8 °C 45 % 89 % 1023,3 hPa 0,0 l/m² 6,6 km/h (2 Bft) W 0,00 h 0 W/m² -8,2 °C -7,9 °C 12,1 km/h (2 Bft)
11.01.2026 05:00 22,2 °C -8,7 °C 45 % 89 % 1023,7 hPa 0,0 l/m² 6,8 km/h (2 Bft) W 0,00 h 0 W/m² -10,2 °C -10,3 °C 10,1 km/h (2 Bft)
11.01.2026 06:00 22,1 °C -9,4 °C 45 % 89 % 1023,8 hPa 0,0 l/m² 4,5 km/h (1 Bft) W-SW 0,00 h 0 W/m² -10,8 °C -10,1 °C 7,3 km/h (2 Bft)
11.01.2026 07:00 22,1 °C -10,7 °C 45 % 88 % 1024,5 hPa 0,0 l/m² 0,0 km/h (0 Bft) W-SW 0,00 h 0 W/m² -12,2 °C -10,7 °C 0,1 km/h (0 Bft)
11.01.2026 08:00 22,2 °C -12,3 °C 45 % 88 % 1024,9 hPa 0,0 l/m² 0,0 km/h (0 Bft) W-SW 0,00 h 17 W/m² -13,8 °C -12,3 °C 0,0 km/h (0 Bft)
11.01.2026 09:00 22,6 °C -10,6 °C 45 % 89 % 1025,5 hPa 0,0 l/m² 0,0 km/h (0 Bft) W-SW 0,85 h 128 W/m² -12,0 °C -10,6 °C 0,1 km/h (0 Bft)
11.01.2026 10:00 23,1 °C -7,8 °C 44 % 88 % 1026,0 hPa 0,0 l/m² 2,4 km/h (1 Bft) W 1,00 h 261 W/m² -9,5 °C -7,8 °C 4,5 km/h (1 Bft)
11.01.2026 11:00 23,5 °C -4,9 °C 44 % 80 % 1025,7 hPa 0,0 l/m² 2,0 km/h (1 Bft) W-SW 1,00 h 328 W/m² -7,8 °C -4,9 °C 4,1 km/h (1 Bft)
11.01.2026 12:00 23,7 °C -2,7 °C 44 % 71 % 1025,6 hPa 0,2 l/m² 2,0 km/h (1 Bft) SW 1,00 h 340 W/m² -7,3 °C -2,7 °C 3,6 km/h (1 Bft)
11.01.2026 13:00 23,2 °C -2,3 °C 43 % 69 % 1025,5 hPa 0,0 l/m² 4,2 km/h (1 Bft) S-SW 1,00 h 307 W/m² -7,2 °C -2,7 °C 5,5 km/h (2 Bft)
11.01.2026 14:00 23,0 °C -3,7 °C 44 % 73 % 1025,6 hPa 0,0 l/m² 6,0 km/h (2 Bft) SW 1,00 h 209 W/m² -7,8 °C -4,2 °C 7,6 km/h (2 Bft)
11.01.2026 15:00 22,8 °C -3,2 °C 42 % 72 % 1025,5 hPa 0,0 l/m² 0,3 km/h (0 Bft) S-SW 0,75 h 79 W/m² -7,4 °C -3,2 °C 0,9 km/h (0 Bft)
11.01.2026 16:00 22,7 °C -5,4 °C 44 % 72 % 1025,6 hPa 0,0 l/m² 0,1 km/h (0 Bft) S-SW 0,00 h 10 W/m² -9,7 °C -5,4 °C 0,4 km/h (0 Bft)
11.01.2026 17:00 22,5 °C -9,1 °C 42 % 76 % 1025,4 hPa 0,0 l/m² 0,3 km/h (0 Bft) S-SW 0,00 h 0 W/m² -12,5 °C -9,1 °C 0,5 km/h (0 Bft)
11.01.2026 18:00 22,3 °C -11,4 °C 42 % 80 % 1025,3 hPa 0,0 l/m² 0,0 km/h (0 Bft) S-SW 0,00 h 0 W/m² -14,1 °C -11,4 °C 0,1 km/h (0 Bft)
11.01.2026 19:00 22,2 °C -12,9 °C 43 % 82 % 1025,3 hPa 0,0 l/m² 0,0 km/h (0 Bft) S-SW 0,00 h 0 W/m² -15,3 °C -12,9 °C 0,1 km/h (0 Bft)
11.01.2026 20:00 22,4 °C -14,0 °C 45 % 83 % 1025,0 hPa 0,0 l/m² 0,0 km/h (0 Bft) S-SW 0,00 h 0 W/m² -16,2 °C -14,0 °C 0,0 km/h (0 Bft)
11.01.2026 21:00 22,5 °C -14,5 °C 45 % 85 % 1024,7 hPa 0,0 l/m² 0,8 km/h (0 Bft) SO 0,00 h 0 W/m² -16,5 °C -14,5 °C 1,4 km/h (1 Bft)
11.01.2026 22:00 22,7 °C -14,8 °C 45 % 85 % 1024,4 hPa 0,0 l/m² 1,5 km/h (1 Bft) SO 0,00 h 0 W/m² -16,8 °C -14,8 °C 2,5 km/h (1 Bft)
11.01.2026 23:00 22,5 °C -14,8 °C 45 % 86 % 1024,1 hPa 0,0 l/m² 1,0 km/h (0 Bft) O 0,00 h 0 W/m² -16,6 °C -14,8 °C 2,0 km/h (1 Bft)
Min-Datum _ 05.01.26 11.01.26 10.01.26 11.01.26 09.01.26 - 11.01.26 - - - 11.01.26 10.01.26 11.01.26
_ Min-Zeit 00:00 23:55 13:22 13:01 15:14 - 23:00 - - - 22:27 01:16 23:00
Minimum _ 20,8 °C -15,0 °C 36 % 68 % 994,0 hPa - 0,0 km/h (0 Bft) - - - -16,9 °C -19,0 °C 0,0 km/h (0 Bft)
Max-Datum _ 11.01.26 05.01.26 05.01.26 09.01.26 11.01.26 11.01.26 09.01.26 - 06.01.26 10.01.26 08.01.26 05.01.26 09.01.26
_ Max-Zeit 12:18 14:37 22:00 20:09 11:03 12:51 09:21 - 12:06 12:46 12:12 14:38 09:21
Maximum _ 23,7 °C 1,8 °C 54 % 93 % 1026,2 hPa 0,2 l/m² 30,7 km/h
O (5 Bft)
- 0,10 h 408 W/m² -1,6 °C 1,7 °C 43,5 km/h
O (6 Bft)
Durchschnitt _ 22,1 °C -4,2 °C 48 % 84 % 1011,7 hPa #0,6 l/m² 7,9 km/h (2 Bft) SW #39:33 h 41 W/m² -6,6 °C -7,2 °C 11,4 km/h (2 Bft)
© 2009 Mathias Hoßbach